Decoded Metar for KBGM (BINGHAMTON in NY, USA) (IATA:BGM) | Meteo·Mobile Aviation Weather
aviador You're here:

KBGM Decoded Metar

BINGHAMTON in NY, USA
Report Time2020-02-22 22:53:00
UTC Time2020-02-22 23:04:27
Flight Rules vfr VFR
Wind270° at 07 kt
W.Decomp.*RWY 28: 7.0 kt HW 0.2 kt RCW
RWY 34: 3.7 kt HW 5.9 kt LCW
Visibility9999 m
Phenomena:N/A
Clouds:N/A
Expected CloudBase > 4,400 ft AGL from Temp-Dew spread
CeilingNone
Temp02°C (ISA -10)
Dew Point-9°C (44% RH)
AAT-3.5°C
QNH1019 hPa
Density Alt266 ft
Elevation1,608 ft
Report Wrong Elevation
Raw Report
KBGM 222253Z 27007KT 10SM CLR 02/M09 A3010 RMK AO2 SLP214
T00221089=

Extra information for KBGM:More info

Metar Taf Metar & Taf Last 4 Metars F.Rules Stats Wind Profile Meteogram Temp Stats Airport Information Weather charts Add Link Nearby VenuesMetar ALERT Operation Metar Decoded Social comments

AIRNAV info for KBGM